createdAt,value
2022-09-07T00:01:43.627Z,102015.50
2022-09-07T00:04:13.857Z,102004.03
2022-09-07T00:06:44.228Z,102010.88
2022-09-07T00:09:16.009Z,102007.94
2022-09-07T00:11:46.849Z,102002.78
2022-09-07T00:14:17.209Z,101990.44
2022-09-07T00:16:47.707Z,101993.94
2022-09-07T00:19:18.018Z,101989.53
2022-09-07T00:21:48.617Z,101982.41
2022-09-07T00:24:20.457Z,101981.34
2022-09-07T00:26:50.850Z,101996.16
2022-09-07T00:29:21.027Z,101989.69
2022-09-07T00:31:51.539Z,101989.53
2022-09-07T00:34:21.667Z,101995.81
2022-09-07T00:36:52.107Z,101991.59
2022-09-07T00:39:23.858Z,101981.88
2022-09-07T00:41:54.357Z,101982.50
2022-09-07T00:45:01.555Z,101984.97
2022-09-07T00:47:39.767Z,101975.41
2022-09-07T00:50:16.599Z,101974.38
2022-09-07T00:52:50.187Z,101977.66
2022-09-07T00:55:22.518Z,101976.06
2022-09-07T00:57:56.327Z,101979.53
2022-09-07T01:00:27.648Z,101986.56
2022-09-07T01:02:58.661Z,101985.69
2022-09-07T01:05:33.489Z,101989.03
2022-09-07T01:08:04.140Z,101985.41
2022-09-07T01:10:36.347Z,101987.41
2022-09-07T01:13:07.298Z,101982.06
2022-09-07T01:15:45.478Z,101986.50
2022-09-07T01:18:26.825Z,101979.16
2022-09-07T01:21:26.637Z,101986.22
2022-09-07T01:24:32.928Z,101980.94
2022-09-07T01:27:36.735Z,101974.88
2022-09-07T01:30:11.324Z,101972.94
2022-09-07T01:32:56.267Z,101971.88
2022-09-07T01:35:47.197Z,101982.34
2022-09-07T01:38:25.397Z,101978.50
2022-09-07T01:41:04.249Z,101978.34
2022-09-07T01:43:42.075Z,101980.34
2022-09-07T01:46:19.257Z,101969.03
2022-09-07T01:48:53.654Z,101958.47
2022-09-07T01:51:27.725Z,101959.25
2022-09-07T01:54:03.744Z,101960.03
2022-09-07T01:56:38.164Z,101958.69
2022-09-07T01:59:19.515Z,101960.16
2022-09-07T02:01:58.080Z,101955.75
2022-09-07T02:04:33.665Z,101956.75
2022-09-07T02:07:11.924Z,101959.44
2022-09-07T02:09:46.895Z,101956.66
2022-09-07T02:12:23.084Z,101956.72
2022-09-07T02:14:58.194Z,101958.50
2022-09-07T02:17:34.754Z,101952.44
2022-09-07T02:20:13.835Z,101949.94
2022-09-07T02:22:47.665Z,101949.13
2022-09-07T02:25:22.797Z,101953.44
2022-09-07T02:27:56.894Z,101952.53
2022-09-07T02:30:27.055Z,101946.28
2022-09-07T02:32:58.924Z,101951.53
2022-09-07T02:35:28.735Z,101944.34
2022-09-07T02:38:00.154Z,101942.59
2022-09-07T02:40:30.377Z,101946.97
2022-09-07T02:43:03.601Z,101936.28
2022-09-07T02:45:43.750Z,101938.13
2022-09-07T02:48:28.088Z,101929.88
2022-09-07T02:51:11.579Z,101937.34
2022-09-07T02:54:04.249Z,101942.41
2022-09-07T02:56:47.469Z,101937.06
2022-09-07T02:59:41.870Z,101930.03
2022-09-07T03:02:21.325Z,101931.84
2022-09-07T03:05:01.063Z,101928.97
2022-09-07T03:07:37.552Z,101929.66
2022-09-07T03:10:11.749Z,101926.91
2022-09-07T03:12:45.147Z,101930.63
2022-09-07T03:15:16.749Z,101920.19
2022-09-07T03:17:48.038Z,101909.59
2022-09-07T03:20:19.959Z,101923.72
2022-09-07T03:22:51.979Z,101923.78
2022-09-07T03:25:23.550Z,101924.41
2022-09-07T03:27:53.802Z,101926.28
2022-09-07T03:30:24.229Z,101918.53
2022-09-07T03:32:54.549Z,101921.19
2022-09-07T03:35:26.089Z,101925.69
2022-09-07T03:37:56.473Z,101923.66
2022-09-07T03:40:26.558Z,101926.06
2022-09-07T03:42:56.617Z,101927.63
2022-09-07T03:45:27.209Z,101932.94
2022-09-07T03:47:57.348Z,101933.00
2022-09-07T03:50:29.470Z,101932.19
2022-09-07T03:53:00.010Z,101932.03
2022-09-07T03:55:30.168Z,101939.03
2022-09-07T03:58:00.657Z,101946.00
2022-09-07T04:00:30.869Z,101946.09
2022-09-07T04:03:01.377Z,101951.44
2022-09-07T04:05:34.129Z,101947.72
2022-09-07T04:08:04.799Z,101960.16
2022-09-07T04:10:38.839Z,101949.69
2022-09-07T04:13:10.429Z,101962.63
2022-09-07T04:15:40.840Z,101957.19
2022-09-07T04:18:11.279Z,101955.41
2022-09-07T04:20:42.999Z,101945.09
2022-09-07T04:23:13.509Z,101942.34
2022-09-07T04:25:49.960Z,101946.63
2022-09-07T04:28:22.277Z,101951.97
2022-09-07T04:30:52.491Z,101950.09
2022-09-07T04:33:23.216Z,101949.19
2022-09-07T04:35:54.775Z,101943.03
2022-09-07T04:38:25.444Z,101944.00
2022-09-07T04:41:02.097Z,101942.44
2022-09-07T04:43:32.657Z,101934.63
2022-09-07T04:46:05.688Z,101922.69
2022-09-07T04:48:36.608Z,101932.53
2022-09-07T04:51:09.597Z,101935.34
2022-09-07T04:53:40.494Z,101941.72
2022-09-07T04:56:15.040Z,101930.47
2022-09-07T04:58:48.296Z,101927.97
2022-09-07T05:01:20.535Z,101929.81
2022-09-07T05:03:51.726Z,101923.81
2022-09-07T05:06:24.430Z,101922.22
2022-09-07T05:08:56.296Z,101921.28
2022-09-07T05:11:29.185Z,101916.09
2022-09-07T05:14:00.549Z,101916.22
2022-09-07T05:16:31.555Z,101913.75
2022-09-07T05:19:03.747Z,101906.03
2022-09-07T05:21:36.794Z,101898.28
2022-09-07T05:24:08.486Z,101897.59
2022-09-07T05:26:40.098Z,101897.84
2022-09-07T05:32:00.825Z,101890.44
2022-09-07T05:34:32.674Z,101889.66
2022-09-07T05:37:04.875Z,101894.28
2022-09-07T05:39:35.355Z,101889.16
2022-09-07T05:42:06.515Z,101891.97
2022-09-07T05:44:45.009Z,101880.03
2022-09-07T05:47:16.606Z,101875.94
2022-09-07T05:49:47.105Z,101874.38
2022-09-07T05:52:18.657Z,101875.53
2022-09-07T05:54:49.056Z,101880.16
2022-09-07T05:57:19.507Z,101883.97
2022-09-07T05:59:50.364Z,101880.78
2022-09-07T06:02:21.237Z,101873.06
2022-09-07T06:04:51.557Z,101873.31
2022-09-07T06:07:29.584Z,101880.66
2022-09-07T06:12:51.377Z,101875.84
2022-09-07T06:15:22.125Z,101876.09
2022-09-07T06:17:54.035Z,101878.13
2022-09-07T06:20:24.393Z,101885.50
2022-09-07T06:22:57.518Z,101883.25
2022-09-07T06:25:27.734Z,101888.13
2022-09-07T06:27:59.997Z,101882.25
2022-09-07T06:30:30.515Z,101881.78
2022-09-07T06:33:01.608Z,101875.00
2022-09-07T06:35:32.633Z,101871.72
2022-09-07T06:38:05.046Z,101867.34
2022-09-07T06:40:38.037Z,101853.16
2022-09-07T06:43:09.774Z,101858.44
2022-09-07T06:45:40.044Z,101852.22
2022-09-07T06:48:10.516Z,101856.56
2022-09-07T06:50:41.005Z,101862.66
2022-09-07T06:56:06.958Z,101850.63
2022-09-07T06:58:42.162Z,101857.41
2022-09-07T07:01:15.718Z,101855.25
2022-09-07T07:03:46.967Z,101848.66
2022-09-07T07:06:17.875Z,101851.44
2022-09-07T07:08:49.986Z,101848.69
2022-09-07T07:11:20.216Z,101854.56
2022-09-07T07:13:50.617Z,101857.97
2022-09-07T07:16:20.958Z,101862.97
2022-09-07T07:18:52.694Z,101856.56
2022-09-07T07:21:22.527Z,101853.69
2022-09-07T07:23:55.674Z,101853.25
2022-09-07T07:26:27.924Z,101854.97
2022-09-07T07:31:35.431Z,101855.38
2022-09-07T07:34:05.964Z,101850.28
2022-09-07T07:36:36.083Z,101856.09
2022-09-07T07:39:08.443Z,101853.72
2022-09-07T07:42:00.318Z,101852.34
2022-09-07T07:44:37.948Z,101854.78
2022-09-07T07:47:09.597Z,101851.13
2022-09-07T07:49:42.898Z,101848.00
2022-09-07T07:57:58.568Z,101846.97
2022-09-07T08:00:57.264Z,101843.47
2022-09-07T08:03:29.633Z,101845.75
2022-09-07T08:06:38.335Z,101851.75
2022-09-07T08:09:18.358Z,101830.44
2022-09-07T08:11:51.567Z,101834.72
2022-09-07T08:14:23.308Z,101838.47
2022-09-07T08:16:53.895Z,101832.28
2022-09-07T08:19:37.885Z,101837.03
2022-09-07T08:22:13.404Z,101826.78
2022-09-07T08:24:45.937Z,101822.63
2022-09-07T08:27:21.574Z,101824.44
2022-09-07T08:29:55.676Z,101826.78
2022-09-07T08:32:30.728Z,101823.78
2022-09-07T08:35:12.387Z,101817.56
2022-09-07T08:37:50.666Z,101821.19
2022-09-07T08:40:24.597Z,101818.59
2022-09-07T08:43:09.165Z,101823.53
2022-09-07T08:45:46.148Z,101817.31
2022-09-07T08:48:34.132Z,101820.59
2022-09-07T08:51:30.405Z,101831.09
2022-09-07T08:54:06.917Z,101828.47
2022-09-07T09:01:30.495Z,101818.81
2022-09-07T09:06:11.038Z,101819.56
2022-09-07T09:07:19.285Z,101815.19
2022-09-07T09:10:21.636Z,101804.06
2022-09-07T09:13:04.767Z,101806.53
2022-09-07T09:15:54.936Z,101806.59
2022-09-07T09:18:45.186Z,101795.72
2022-09-07T09:21:17.256Z,101795.47
2022-09-07T09:23:51.716Z,101799.72
2022-09-07T09:26:26.766Z,101804.97
2022-09-07T09:28:57.775Z,101794.03
2022-09-07T09:31:36.410Z,101801.06
2022-09-07T09:34:13.717Z,101801.56
2022-09-07T09:36:47.000Z,101789.69
2022-09-07T09:39:29.668Z,101779.81
2022-09-07T09:42:26.746Z,101767.44
2022-09-07T09:45:29.970Z,101769.28
2022-09-07T09:48:08.005Z,101779.16
2022-09-07T09:54:29.008Z,101757.44
2022-09-07T09:57:13.632Z,101754.00
2022-09-07T10:00:08.519Z,101749.94
2022-09-07T10:06:55.891Z,101744.41
2022-09-07T10:10:05.731Z,101737.63
2022-09-07T10:12:59.776Z,101735.47
2022-09-07T10:16:25.426Z,101735.38
2022-09-07T10:19:02.176Z,101729.00
2022-09-07T10:21:34.454Z,101731.88
2022-09-07T10:24:17.594Z,101734.00
2022-09-07T10:27:03.405Z,101734.13
2022-09-07T10:30:33.897Z,101735.00
2022-09-07T10:33:11.976Z,101728.84
2022-09-07T10:35:50.965Z,101738.16
2022-09-07T10:38:32.892Z,101742.69
2022-09-07T10:41:07.734Z,101738.44
2022-09-07T10:43:51.757Z,101733.22
2022-09-07T10:46:57.696Z,101734.34
2022-09-07T10:49:35.307Z,101726.97
2022-09-07T10:57:09.897Z,101731.47
2022-09-07T11:00:11.488Z,101726.50
2022-09-07T11:08:04.316Z,101730.78
2022-09-07T11:10:57.055Z,101722.41
2022-09-07T11:14:12.134Z,101718.34
2022-09-07T11:16:55.508Z,101716.56
2022-09-07T11:19:41.604Z,101720.41
2022-09-07T11:22:38.966Z,101712.56
2022-09-07T11:25:29.428Z,101702.84
2022-09-07T11:28:19.024Z,101696.34
2022-09-07T11:30:59.302Z,101698.66
2022-09-07T11:33:35.275Z,101701.53
2022-09-07T11:36:12.445Z,101696.47
2022-09-07T11:38:47.406Z,101700.41
2022-09-07T11:41:30.649Z,101710.94
2022-09-07T11:44:23.867Z,101713.22
2022-09-07T11:47:06.627Z,101702.22
2022-09-07T11:49:37.316Z,101704.75
2022-09-07T11:52:17.396Z,101708.56
2022-09-07T11:54:53.676Z,101700.41
2022-09-07T11:57:55.816Z,101699.38
2022-09-07T12:00:33.244Z,101701.97
2022-09-07T12:03:59.812Z,101698.16
2022-09-07T12:07:28.597Z,101686.06
2022-09-07T12:10:34.935Z,101697.34
2022-09-07T12:13:37.485Z,101685.00
2022-09-07T12:16:27.885Z,101680.63
2022-09-07T12:19:25.422Z,101674.44
2022-09-07T12:22:29.407Z,101675.75
2022-09-07T12:25:26.574Z,101667.56
2022-09-07T12:28:39.642Z,101673.44
2022-09-07T12:31:58.583Z,101670.63
2022-09-07T12:35:01.936Z,101664.84
2022-09-07T12:37:41.736Z,101662.25
2022-09-07T12:41:02.283Z,101666.28
2022-09-07T12:44:11.486Z,101655.72
2022-09-07T12:46:58.559Z,101656.06
2022-09-07T12:49:51.807Z,101647.38
2022-09-07T12:52:58.255Z,101642.41
2022-09-07T12:56:18.140Z,101645.09
2022-09-07T12:59:37.636Z,101638.94
2022-09-07T13:02:34.252Z,101637.72
2022-09-07T13:05:18.586Z,101637.91
2022-09-07T13:08:15.007Z,101633.75
2022-09-07T13:10:47.786Z,101637.09
2022-09-07T13:21:33.515Z,101633.69
2022-09-07T13:24:55.606Z,101627.22
2022-09-07T13:36:40.343Z,101620.53
2022-09-07T13:40:04.613Z,101637.66
2022-09-07T13:43:49.968Z,101628.72
2022-09-07T13:47:47.505Z,101632.00
2022-09-07T13:51:55.987Z,101623.56
2022-09-07T13:55:15.087Z,101631.13
2022-09-07T13:58:00.975Z,101622.78
2022-09-07T14:00:52.793Z,101624.31
2022-09-07T14:03:32.065Z,101622.84
2022-09-07T14:07:05.956Z,101620.91
2022-09-07T14:10:25.153Z,101618.13
2022-09-07T14:13:29.382Z,101615.63
2022-09-07T14:16:06.116Z,101623.31
2022-09-07T14:18:36.576Z,101627.38
2022-09-07T14:21:09.441Z,101622.91
2022-09-07T14:23:40.281Z,101619.00
2022-09-07T14:26:17.319Z,101622.50
2022-09-07T14:28:51.463Z,101625.13
2022-09-07T14:31:23.915Z,101622.91
2022-09-07T14:33:55.870Z,101627.63
2022-09-07T14:36:45.340Z,101619.56
2022-09-07T14:39:18.876Z,101623.81
2022-09-07T14:41:49.628Z,101618.56
2022-09-07T14:44:36.753Z,101621.00
2022-09-07T14:47:13.459Z,101622.63
2022-09-07T14:49:43.808Z,101625.97
2022-09-07T14:52:21.601Z,101622.25
2022-09-07T14:54:55.062Z,101628.75
2022-09-07T14:57:51.563Z,101615.00
2022-09-07T15:00:35.931Z,101618.00
2022-09-07T15:03:38.360Z,101613.16
2022-09-07T15:06:09.775Z,101611.13
2022-09-07T15:08:43.439Z,101603.25
2022-09-07T15:14:12.978Z,101602.97
2022-09-07T15:16:46.796Z,101598.25
2022-09-07T15:19:32.448Z,101597.19
2022-09-07T15:22:14.200Z,101596.50
2022-09-07T15:24:45.985Z,101598.50
2022-09-07T15:27:23.320Z,101601.81
2022-09-07T15:29:53.628Z,101595.28
2022-09-07T15:32:25.167Z,101605.28
2022-09-07T15:34:55.618Z,101598.09
2022-09-07T15:40:20.570Z,101597.97
2022-09-07T15:43:19.471Z,101596.47
2022-09-07T15:45:42.250Z,101597.53
2022-09-07T15:48:16.967Z,101592.44
2022-09-07T15:50:47.318Z,101599.00
2022-09-07T15:56:08.595Z,101597.72
2022-09-07T15:58:38.644Z,101592.50
2022-09-07T16:04:04.685Z,101603.53
2022-09-07T16:06:35.902Z,101603.59
2022-09-07T16:09:06.531Z,101603.72
2022-09-07T16:11:37.649Z,101602.28
2022-09-07T16:14:08.018Z,101607.75
2022-09-07T16:19:34.621Z,101600.16
2022-09-07T16:22:05.860Z,101598.56
2022-09-07T16:24:36.698Z,101606.75
2022-09-07T16:27:08.410Z,101605.94
2022-09-07T16:29:39.127Z,101599.06
2022-09-07T16:35:01.668Z,101604.16
2022-09-07T16:37:32.334Z,101602.44
2022-09-07T16:40:02.532Z,101605.22
2022-09-07T16:42:37.100Z,101610.72
2022-09-07T16:47:59.220Z,101602.94
2022-09-07T16:50:31.080Z,101598.75
2022-09-07T16:53:01.036Z,101606.06
2022-09-07T16:55:31.408Z,101612.28
2022-09-07T17:00:51.850Z,101603.84
2022-09-07T17:03:21.896Z,101621.81
2022-09-07T17:05:53.718Z,101616.66
2022-09-07T17:08:23.760Z,101611.53
2022-09-07T17:10:59.600Z,101614.41
2022-09-07T17:13:29.969Z,101615.31
2022-09-07T17:16:04.840Z,101618.22
2022-09-07T17:21:30.360Z,101618.31
2022-09-07T17:24:00.616Z,101620.13
2022-09-07T17:26:31.351Z,101619.38
2022-09-07T17:29:01.929Z,101623.97
2022-09-07T17:34:24.340Z,101621.59
2022-09-07T17:36:56.078Z,101620.19
2022-09-07T17:39:25.711Z,101624.75
2022-09-07T17:41:55.910Z,101623.16
2022-09-07T17:44:26.108Z,101626.03
2022-09-07T17:46:56.179Z,101631.50
2022-09-07T17:49:27.248Z,101630.72
2022-09-07T17:52:00.274Z,101624.56
2022-09-07T17:54:30.728Z,101629.19
2022-09-07T17:57:00.980Z,101623.19
2022-09-07T18:02:22.528Z,101625.03
2022-09-07T18:04:52.726Z,101622.47
2022-09-07T18:07:24.198Z,101622.63
2022-09-07T18:09:54.428Z,101616.47
2022-09-07T18:12:24.320Z,101622.78
2022-09-07T18:14:54.188Z,101621.09
2022-09-07T18:17:24.339Z,101632.81
2022-09-07T18:19:54.890Z,101624.00
2022-09-07T18:22:26.812Z,101622.19
2022-09-07T18:24:58.978Z,101624.91
2022-09-07T18:27:31.348Z,101631.22
2022-09-07T18:30:01.287Z,101626.88
2022-09-07T18:32:31.979Z,101633.16
2022-09-07T18:35:02.131Z,101638.50
2022-09-07T18:37:36.528Z,101626.09
2022-09-07T18:40:09.495Z,101623.47
2022-09-07T18:42:43.430Z,101639.44
2022-09-07T18:45:29.702Z,101630.59
2022-09-07T18:48:00.489Z,101627.97
2022-09-07T18:50:32.216Z,101630.66
2022-09-07T18:53:15.457Z,101630.66
2022-09-07T18:55:47.124Z,101633.38
2022-09-07T18:58:18.023Z,101638.69
2022-09-07T19:00:54.219Z,101636.00
2022-09-07T19:03:26.188Z,101639.56
2022-09-07T19:06:00.854Z,101644.00
2022-09-07T19:08:35.295Z,101643.09
2022-09-07T19:11:09.386Z,101636.88
2022-09-07T19:13:40.904Z,101634.25
2022-09-07T19:16:13.783Z,101633.38
2022-09-07T19:18:49.019Z,101624.50
2022-09-07T19:21:44.227Z,101626.31
2022-09-07T19:24:19.208Z,101628.97
2022-09-07T19:26:51.211Z,101628.09
2022-09-07T19:29:23.671Z,101631.63
2022-09-07T19:32:07.890Z,101640.47
2022-09-07T19:34:40.038Z,101638.69
2022-09-07T19:37:12.736Z,101637.78
2022-09-07T19:39:46.530Z,101646.63
2022-09-07T19:42:17.376Z,101646.63
2022-09-07T19:44:48.030Z,101650.16
2022-09-07T19:47:19.168Z,101655.47
2022-09-07T19:49:49.979Z,101647.47
2022-09-07T19:52:20.191Z,101649.25
2022-09-07T19:54:52.062Z,101648.41
2022-09-07T19:57:21.816Z,101651.03
2022-09-07T19:59:53.423Z,101651.91
2022-09-07T20:02:23.591Z,101652.78
2022-09-07T20:04:54.389Z,101658.97
2022-09-07T20:07:24.851Z,101669.56
2022-09-07T20:09:56.691Z,101660.72
2022-09-07T20:12:26.712Z,101653.63
2022-09-07T20:14:57.283Z,101657.19
2022-09-07T20:17:30.606Z,101643.88
2022-09-07T20:20:03.672Z,101650.06
2022-09-07T20:22:33.932Z,101650.03
2022-09-07T20:25:09.180Z,101651.81
2022-09-07T20:27:41.441Z,101645.53
2022-09-07T20:30:13.058Z,101645.50
2022-09-07T20:32:43.261Z,101649.91
2022-09-07T20:35:13.861Z,101655.16
2022-09-07T20:37:44.011Z,101667.50
2022-09-07T20:40:16.045Z,101671.84
2022-09-07T20:42:46.191Z,101669.19
2022-09-07T20:45:16.703Z,101660.38
2022-09-07T20:47:48.542Z,101668.31
2022-09-07T20:50:19.551Z,101669.13
2022-09-07T20:52:49.691Z,101678.78
2022-09-07T20:55:25.581Z,101675.22
2022-09-07T20:57:56.722Z,101676.09
2022-09-07T21:00:26.931Z,101678.75
2022-09-07T21:02:58.091Z,101676.97
2022-09-07T21:05:28.412Z,101677.84
2022-09-07T21:08:04.872Z,101674.34
2022-09-07T21:10:40.451Z,101670.78
2022-09-07T21:13:11.022Z,101665.47
2022-09-07T21:15:42.310Z,101666.28
2022-09-07T21:18:16.831Z,101665.34
2022-09-07T21:21:18.501Z,101660.88
2022-09-07T21:23:47.672Z,101665.25
2022-09-07T21:26:22.913Z,101661.66
2022-09-07T21:28:57.536Z,101657.22
2022-09-07T21:31:28.975Z,101661.59
2022-09-07T21:34:00.871Z,101659.78
2022-09-07T21:36:32.580Z,101661.53
2022-09-07T21:39:02.752Z,101663.25
2022-09-07T21:41:34.661Z,101659.72
2022-09-07T21:44:05.803Z,101665.91
2022-09-07T21:46:38.089Z,101663.13
2022-09-07T21:49:08.391Z,101669.28
2022-09-07T21:51:38.745Z,101664.00
2022-09-07T21:54:09.338Z,101678.13
2022-09-07T21:56:46.357Z,101672.00
2022-09-07T21:59:16.901Z,101668.50
2022-09-07T22:01:47.302Z,101668.56
2022-09-07T22:04:17.721Z,101668.56
2022-09-07T22:06:48.362Z,101663.22
2022-09-07T22:09:18.541Z,101664.84
2022-09-07T22:11:50.766Z,101670.06
2022-09-07T22:14:21.093Z,101672.66
2022-09-07T22:16:51.579Z,101669.13
2022-09-07T22:19:22.561Z,101662.94
2022-09-07T22:21:54.061Z,101655.81
2022-09-07T22:24:24.101Z,101655.75
2022-09-07T22:26:56.062Z,101654.03
2022-09-07T22:29:26.421Z,101659.34
2022-09-07T22:31:56.621Z,101653.16
2022-09-07T22:34:27.073Z,101655.66
2022-09-07T22:36:57.482Z,101651.19
2022-09-07T22:39:27.687Z,101645.97
2022-09-07T22:41:59.571Z,101641.63
2022-09-07T22:44:30.309Z,101639.03
2022-09-07T22:47:00.904Z,101639.06
2022-09-07T22:49:31.161Z,101634.63
2022-09-07T22:52:01.623Z,101640.81
2022-09-07T22:54:31.991Z,101638.03
2022-09-07T22:57:03.942Z,101634.50
2022-09-07T22:59:34.212Z,101642.44
2022-09-07T23:02:05.089Z,101641.59
2022-09-07T23:04:35.219Z,101639.78
2022-09-07T23:07:07.922Z,101640.53
2022-09-07T23:09:38.035Z,101644.88
2022-09-07T23:12:10.275Z,101637.78
2022-09-07T23:14:40.446Z,101639.56
2022-09-07T23:17:10.857Z,101652.72
2022-09-07T23:19:41.016Z,101654.44
2022-09-07T23:22:11.455Z,101648.25
2022-09-07T23:24:41.907Z,101640.31
2022-09-07T23:27:13.676Z,101642.88
2022-09-07T23:29:43.328Z,101636.84
2022-09-07T23:32:13.648Z,101642.88
2022-09-07T23:34:43.669Z,101644.72
2022-09-07T23:37:14.070Z,101649.03
2022-09-07T23:39:44.894Z,101646.41
2022-09-07T23:42:16.999Z,101650.88
2022-09-07T23:44:48.749Z,101649.94
2022-09-07T23:47:19.181Z,101648.16
2022-09-07T23:49:49.169Z,101642.94
2022-09-07T23:52:19.169Z,101650.06
2022-09-07T23:54:49.442Z,101641.28
2022-09-07T23:57:21.018Z,101639.50
2022-09-07T23:59:51.539Z,101641.28
